Time;durP1;ratioP1;P1;durP2;ratioP2;P2;SDS_P1;SDS_P2;PMS_P1;PMS_P2;Temp;Humidity;BMP_temperature;BMP_pressure;BME280_temperature;BME280_humidity;BME280_pressure;Samples;Min_cycle;Max_cycle;Signal;HPM_P1;HPM_P2
2022/09/08 00:02:24;;;;;;;13.18;9.90;;;20.20;99.90;;;;;;5032882;28;20021;-85
2022/09/08 00:04:50;;;;;;;12.90;10.07;;;20.20;99.90;;;;;;5032114;28;20396;-85
2022/09/08 00:07:16;;;;;;;18.58;10.10;;;20.30;99.90;;;;;;5032569;28;20112;-86
2022/09/08 00:09:42;;;;;;;17.02;9.60;;;20.30;99.90;;;;;;5032886;28;20131;-87
2022/09/08 00:12:09;;;;;;;11.00;9.48;;;20.30;99.90;;;;;;5032749;28;20043;-86
2022/09/08 00:14:35;;;;;;;15.65;9.57;;;20.40;99.90;;;;;;5032752;28;20025;-86
2022/09/08 00:17:02;;;;;;;13.20;9.25;;;20.30;99.90;;;;;;5032814;28;20045;-86
2022/09/08 00:19:28;;;;;;;11.45;9.75;;;20.40;99.90;;;;;;5032985;28;20033;-86
2022/09/08 00:21:54;;;;;;;10.88;9.20;;;20.30;99.90;;;;;;5035858;28;20469;-85
2022/09/08 00:24:20;;;;;;;15.95;9.25;;;20.30;99.90;;;;;;5035681;28;20025;-86
2022/09/08 00:26:45;;;;;;;12.35;9.20;;;20.20;99.90;;;;;;5032333;28;20396;-86
2022/09/08 00:29:11;;;;;;;10.10;9.02;;;20.20;99.90;;;;;;5034235;28;20094;-86
2022/09/08 00:31:38;;;;;;;10.70;9.02;;;20.20;99.90;;;;;;5036051;28;20037;-86
2022/09/08 00:34:04;;;;;;;11.38;9.02;;;20.10;99.90;;;;;;5035626;28;20059;-86
2022/09/08 00:36:31;;;;;;;10.40;8.50;;;20.10;99.90;;;;;;5035314;28;20501;-85
2022/09/08 00:38:58;;;;;;;14.05;8.68;;;20.00;99.90;;;;;;5036358;28;20025;-87
2022/09/08 00:41:24;;;;;;;10.40;8.38;;;20.00;99.90;;;;;;5053863;28;20691;-86
2022/09/08 00:44:00;;;;;;;17.02;8.45;;;20.00;99.90;;;;;;5036009;28;20052;-86
2022/09/08 00:46:37;;;;;;;15.60;9.00;;;20.00;99.90;;;;;;5035476;28;20021;-86
2022/09/08 00:49:16;;;;;;;10.98;9.13;;;20.00;99.90;;;;;;5034698;28;20584;-85
2022/09/08 00:51:46;;;;;;;12.00;9.85;;;20.00;99.90;;;;;;5034942;28;20148;-84
2022/09/08 00:54:16;;;;;;;14.45;9.48;;;20.10;99.90;;;;;;5035219;28;20036;-86
2022/09/08 00:56:43;;;;;;;10.77;9.68;;;20.00;99.90;;;;;;5034549;28;20029;-84
2022/09/08 00:59:09;;;;;;;21.70;10.85;;;20.10;99.90;;;;;;5034078;28;20565;-84
2022/09/08 01:01:36;;;;;;;12.48;9.82;;;20.10;99.90;;;;;;5033088;28;20026;-84
2022/09/08 01:04:04;;;;;;;14.50;10.20;;;20.10;99.90;;;;;;5034020;28;20029;-84
2022/09/08 01:15:08;;;;;;;12.85;10.23;;;20.00;99.90;;;;;;5053150;28;20068;-85
2022/09/08 01:17:34;;;;;;;20.38;9.75;;;20.00;99.90;;;;;;5052643;28;20020;-86
2022/09/08 01:20:04;;;;;;;13.50;10.68;;;20.10;99.90;;;;;;5035058;28;20482;-85
2022/09/08 01:23:24;;;;;;;16.17;10.32;;;20.10;99.90;;;;;;5035101;28;20070;-86
2022/09/08 01:25:55;;;;;;;24.70;10.02;;;20.10;99.90;;;;;;4953094;29;20034;-86
2022/09/08 01:28:40;;;;;;;13.10;9.82;;;20.10;99.90;;;;;;4936524;29;20028;-87
2022/09/08 01:31:07;;;;;;;18.67;9.77;;;20.00;99.90;;;;;;4995340;28;20125;-87
2022/09/08 01:33:33;;;;;;;12.57;9.15;;;20.00;99.90;;;;;;5014991;28;20494;-86
2022/09/08 01:36:05;;;;;;;11.95;9.40;;;20.00;99.90;;;;;;5023482;28;20618;-86
2022/09/08 01:38:31;;;;;;;14.35;10.50;;;20.00;99.90;;;;;;5034114;28;20104;-86
2022/09/08 01:40:57;;;;;;;12.43;10.40;;;20.00;99.90;;;;;;5034871;28;20558;-86
2022/09/08 01:43:22;;;;;;;13.15;11.27;;;20.00;99.90;;;;;;5035201;28;20051;-87
2022/09/08 01:45:48;;;;;;;12.27;10.93;;;20.00;99.90;;;;;;5034989;28;20044;-86
2022/09/08 01:48:14;;;;;;;11.77;9.98;;;20.10;99.90;;;;;;5035119;28;20025;-86
2022/09/08 01:50:40;;;;;;;14.40;10.30;;;20.10;99.90;;;;;;5034809;28;20306;-87
2022/09/08 01:53:05;;;;;;;12.32;10.88;;;20.10;99.90;;;;;;5034530;28;20397;-87
2022/09/08 01:55:31;;;;;;;16.55;11.35;;;20.10;99.90;;;;;;5052139;28;20048;-86
2022/09/08 01:57:56;;;;;;;12.63;10.98;;;20.10;99.90;;;;;;5052357;28;20029;-85
2022/09/08 02:00:22;;;;;;;13.75;11.40;;;20.10;99.90;;;;;;5034137;28;20048;-85
2022/09/08 02:02:48;;;;;;;16.30;11.18;;;20.10;99.90;;;;;;5034392;28;20409;-85
2022/09/08 02:05:14;;;;;;;17.17;11.35;;;20.00;99.90;;;;;;5051738;28;20378;-84
2022/09/08 02:07:39;;;;;;;12.68;11.38;;;20.10;99.90;;;;;;5029513;28;20025;-84
2022/09/08 02:10:07;;;;;;;18.23;10.98;;;20.10;99.90;;;;;;5032440;28;20051;-84
2022/09/08 02:12:32;;;;;;;15.93;11.10;;;20.00;99.90;;;;;;5032957;28;20025;-85
2022/09/08 02:14:58;;;;;;;15.93;11.70;;;20.00;99.90;;;;;;5033685;28;20043;-85
2022/09/08 02:17:24;;;;;;;11.88;10.60;;;20.00;99.90;;;;;;5051472;28;20025;-85
2022/09/08 02:19:49;;;;;;;18.48;11.80;;;20.00;99.90;;;;;;5033368;28;20466;-84
2022/09/08 02:22:15;;;;;;;11.90;10.43;;;19.90;99.90;;;;;;5032756;28;20033;-84
2022/09/08 02:24:44;;;;;;;16.75;11.30;;;19.90;99.90;;;;;;5038525;28;20507;-85
2022/09/08 02:27:10;;;;;;;16.35;12.02;;;19.90;99.90;;;;;;5053563;28;20082;-84
2022/09/08 02:29:35;;;;;;;17.40;10.88;;;19.80;99.90;;;;;;5046806;28;20037;-84
2022/09/08 02:32:01;;;;;;;13.98;11.75;;;19.80;99.90;;;;;;5014140;28;20112;-86
2022/09/08 02:34:27;;;;;;;12.18;10.85;;;19.80;99.90;;;;;;5032865;28;20037;-84
2022/09/08 02:36:52;;;;;;;16.45;11.35;;;19.80;99.90;;;;;;5032287;28;20032;-85
2022/09/08 02:39:20;;;;;;;12.55;11.32;;;19.80;99.90;;;;;;5031784;28;20037;-84
2022/09/08 02:41:46;;;;;;;13.75;12.10;;;19.70;99.90;;;;;;5032019;28;20094;-83
2022/09/08 02:44:12;;;;;;;16.58;12.95;;;19.70;99.90;;;;;;5028005;28;20473;-85
2022/09/08 02:46:39;;;;;;;17.70;12.90;;;19.70;99.90;;;;;;5025748;28;20270;-84
2022/09/08 02:49:06;;;;;;;24.98;11.90;;;19.70;99.90;;;;;;5036538;28;20060;-84
2022/09/08 02:51:33;;;;;;;18.63;12.68;;;19.70;99.90;;;;;;5026771;28;20034;-83
2022/09/08 02:53:58;;;;;;;15.57;11.93;;;19.70;99.90;;;;;;5026760;28;20025;-82
2022/09/08 02:56:25;;;;;;;13.10;11.73;;;19.70;99.90;;;;;;5025678;28;20021;-83
2022/09/08 02:58:51;;;;;;;16.17;12.30;;;19.60;99.90;;;;;;5026853;28;20040;-86
2022/09/08 03:01:17;;;;;;;17.52;12.88;;;19.60;99.90;;;;;;5029199;28;20028;-86
2022/09/08 03:03:42;;;;;;;16.30;12.95;;;19.60;99.90;;;;;;5030094;28;20029;-86
2022/09/08 03:06:09;;;;;;;14.93;12.57;;;19.60;99.90;;;;;;5030780;28;20044;-85
2022/09/08 03:08:35;;;;;;;19.77;13.02;;;19.60;99.90;;;;;;5029527;28;20028;-86
2022/09/08 03:11:01;;;;;;;18.88;12.75;;;19.60;99.90;;;;;;5030333;28;20079;-84
2022/09/08 03:13:28;;;;;;;16.05;12.18;;;19.60;99.90;;;;;;5028907;28;20029;-85
2022/09/08 03:15:54;;;;;;;17.60;12.18;;;19.60;99.90;;;;;;5010357;28;20025;-84
2022/09/08 03:18:21;;;;;;;18.40;12.18;;;19.50;99.90;;;;;;5025997;28;20057;-83
2022/09/08 03:20:46;;;;;;;14.68;13.23;;;19.50;99.90;;;;;;5030424;28;20482;-85
2022/09/08 03:23:19;;;;;;;14.70;12.15;;;19.40;99.90;;;;;;5047633;28;20025;-84
2022/09/08 03:25:47;;;;;;;19.60;12.68;;;19.40;99.90;;;;;;5027185;28;20116;-85
2022/09/08 03:28:19;;;;;;;16.15;11.55;;;19.40;99.90;;;;;;5045420;28;20040;-86
2022/09/08 03:30:45;;;;;;;15.40;12.40;;;19.40;99.90;;;;;;5067908;28;20036;-86
2022/09/08 03:33:11;;;;;;;15.15;11.73;;;19.30;99.90;;;;;;5052391;28;20020;-85
2022/09/08 03:35:37;;;;;;;16.25;12.27;;;19.40;99.90;;;;;;5040404;28;20059;-86
2022/09/08 03:38:03;;;;;;;20.48;12.23;;;19.40;99.90;;;;;;5030945;28;20040;-85
2022/09/08 03:40:28;;;;;;;27.52;12.52;;;19.30;99.90;;;;;;5047269;28;20041;-85
2022/09/08 03:42:54;;;;;;;19.88;12.65;;;19.30;99.90;;;;;;5029746;28;20048;-84
2022/09/08 03:45:20;;;;;;;21.65;11.85;;;19.20;99.90;;;;;;5029375;28;20036;-86
2022/09/08 03:47:46;;;;;;;17.58;11.50;;;19.10;99.90;;;;;;5030041;28;20009;-85
2022/09/08 03:50:15;;;;;;;14.88;12.85;;;19.10;99.90;;;;;;5029483;28;20505;-86
2022/09/08 03:52:41;;;;;;;14.27;12.52;;;19.10;99.90;;;;;;5031960;28;20037;-86
2022/09/08 03:55:08;;;;;;;20.95;12.82;;;19.00;99.90;;;;;;5031052;28;20044;-85
2022/09/08 03:57:35;;;;;;;15.00;13.45;;;19.00;99.90;;;;;;5055707;28;20017;-86
2022/09/08 04:00:03;;;;;;;13.35;11.95;;;19.00;99.90;;;;;;5033990;28;20114;-86
2022/09/08 04:02:30;;;;;;;15.50;11.75;;;19.00;99.90;;;;;;5033776;28;20064;-86
2022/09/08 04:04:57;;;;;;;16.65;12.10;;;19.00;99.90;;;;;;5040299;28;20035;-86
2022/09/08 04:07:25;;;;;;;13.23;11.88;;;19.00;99.90;;;;;;5032909;28;20397;-86
2022/09/08 04:09:51;;;;;;;13.50;11.73;;;18.90;99.90;;;;;;5033442;28;20035;-85
2022/09/08 04:12:17;;;;;;;12.30;10.70;;;18.90;99.90;;;;;;5040703;28;20116;-85
2022/09/08 04:14:45;;;;;;;19.65;12.40;;;18.90;99.90;;;;;;5033295;28;20032;-85
2022/09/08 04:17:11;;;;;;;11.68;10.48;;;18.90;99.90;;;;;;5032722;28;20067;-86
2022/09/08 04:19:37;;;;;;;14.25;12.05;;;19.00;99.90;;;;;;5032343;28;20064;-86
2022/09/08 04:22:03;;;;;;;14.63;11.95;;;19.00;99.90;;;;;;5033093;28;20040;-85
2022/09/08 04:24:29;;;;;;;15.70;13.18;;;19.00;99.90;;;;;;5032680;28;20037;-86
2022/09/08 04:26:54;;;;;;;12.52;11.10;;;19.00;99.90;;;;;;5033600;28;20504;-86
2022/09/08 04:29:20;;;;;;;17.17;12.15;;;18.90;99.90;;;;;;5032363;28;20033;-85
2022/09/08 04:31:47;;;;;;;13.18;11.02;;;18.90;99.90;;;;;;5033045;28;20324;-84
2022/09/08 04:34:14;;;;;;;17.30;11.50;;;19.00;99.90;;;;;;5066330;28;20017;-84
2022/09/08 04:36:40;;;;;;;13.93;10.88;;;19.00;99.90;;;;;;5051926;28;20055;-82
2022/09/08 04:39:06;;;;;;;13.95;11.90;;;19.10;99.90;;;;;;5046962;28;20036;-85
2022/09/08 04:41:32;;;;;;;11.88;10.30;;;19.10;99.90;;;;;;5018199;28;20393;-85
2022/09/08 04:44:03;;;;;;;15.40;10.60;;;19.20;99.90;;;;;;5035025;28;20029;-85
2022/09/08 04:46:31;;;;;;;14.20;11.73;;;19.20;99.90;;;;;;5053059;28;20039;-85
2022/09/08 04:48:57;;;;;;;18.00;10.90;;;19.30;99.90;;;;;;5053674;28;20102;-84
2022/09/08 04:51:24;;;;;;;11.32;9.45;;;19.40;99.90;;;;;;5055099;28;20114;-86
2022/09/08 04:53:52;;;;;;;13.52;9.70;;;19.50;99.90;;;;;;5073014;28;20047;-86
2022/09/08 04:56:19;;;;;;;14.82;9.63;;;19.70;99.90;;;;;;5055698;28;20405;-86
2022/09/08 04:58:46;;;;;;;11.88;9.93;;;19.80;99.90;;;;;;5072738;28;20024;-85
2022/09/08 05:01:20;;;;;;;16.77;8.70;;;20.00;99.90;;;;;;5054088;28;20523;-85
2022/09/08 05:03:51;;;;;;;14.43;9.90;;;20.10;99.90;;;;;;5055108;28;20020;-86
2022/09/08 05:06:16;;;;;;;14.68;10.00;;;20.10;99.90;;;;;;5053888;28;20481;-85
2022/09/08 05:08:50;;;;;;;11.27;10.15;;;20.00;99.90;;;;;;5054761;28;20031;-85
2022/09/08 05:11:18;;;;;;;14.07;10.48;;;20.00;99.90;;;;;;5072198;28;20029;-84
2022/09/08 05:13:44;;;;;;;10.57;9.48;;;20.00;99.90;;;;;;5053660;28;20020;-85
2022/09/08 05:16:15;;;;;;;11.82;9.27;;;20.00;99.90;;;;;;5054096;28;20111;-85
2022/09/08 05:18:41;;;;;;;19.00;9.70;;;20.30;99.90;;;;;;5071728;28;20036;-85
2022/09/08 05:21:09;;;;;;;11.07;8.90;;;20.50;99.90;;;;;;5053960;28;20271;-85
2022/09/08 05:23:35;;;;;;;10.90;9.15;;;20.70;99.90;;;;;;5071654;28;20031;-83
2022/09/08 05:26:08;;;;;;;12.80;9.05;;;20.80;99.90;;;;;;5053779;28;20027;-86
2022/09/08 05:28:36;;;;;;;9.73;8.65;;;21.00;99.90;;;;;;5053464;28;20484;-85
2022/09/08 05:31:03;;;;;;;9.88;8.35;;;21.20;99.90;;;;;;5053734;28;20043;-85
2022/09/08 05:33:30;;;;;;;18.15;9.25;;;21.20;99.90;;;;;;5054885;28;20036;-84
2022/09/08 05:35:56;;;;;;;9.75;8.40;;;21.40;99.90;;;;;;5072012;28;20052;-84
2022/09/08 05:38:22;;;;;;;13.95;8.80;;;21.50;99.90;;;;;;5054807;28;20060;-85
2022/09/08 05:40:48;;;;;;;16.38;8.20;;;21.50;99.90;;;;;;5054974;28;20039;-85
2022/09/08 05:43:15;;;;;;;13.80;8.23;;;21.70;99.90;;;;;;5053869;28;20029;-84
2022/09/08 05:45:45;;;;;;;12.23;9.18;;;21.70;99.90;;;;;;5054021;28;20468;-85
2022/09/08 05:48:11;;;;;;;13.65;8.02;;;21.80;99.90;;;;;;5071698;28;20025;-85
2022/09/08 05:50:37;;;;;;;13.40;7.75;;;21.80;99.90;;;;;;5071787;28;20045;-85
2022/09/08 05:53:03;;;;;;;10.98;8.90;;;22.00;99.90;;;;;;5071358;28;20489;-85
2022/09/08 05:55:29;;;;;;;13.57;8.90;;;21.90;99.90;;;;;;5053409;28;20473;-84
2022/09/08 05:57:56;;;;;;;14.38;8.10;;;21.90;99.90;;;;;;5054349;28;20038;-85
2022/09/08 06:00:22;;;;;;;10.70;8.20;;;22.00;99.90;;;;;;5053761;28;20028;-85
2022/09/08 06:02:52;;;;;;;12.45;7.88;;;22.10;99.90;;;;;;5072789;28;20028;-84
2022/09/08 06:05:19;;;;;;;9.93;8.20;;;22.20;99.90;;;;;;5054032;28;20036;-85
2022/09/08 06:07:46;;;;;;;14.05;8.57;;;22.30;99.90;;;;;;5053910;28;20032;-85
2022/09/08 06:10:13;;;;;;;12.77;8.18;;;22.50;99.90;;;;;;5053757;28;20059;-85
2022/09/08 06:12:39;;;;;;;11.38;7.78;;;22.60;99.90;;;;;;5054252;28;20040;-85
2022/09/08 06:15:06;;;;;;;14.90;8.02;;;22.80;99.90;;;;;;5054117;28;20020;-85
2022/09/08 06:17:32;;;;;;;20.42;9.65;;;23.00;99.90;;;;;;5052045;28;20063;-85
2022/09/08 06:19:58;;;;;;;28.40;8.38;;;23.40;99.90;;;;;;5053550;28;20036;-85
2022/09/08 06:22:24;;;;;;;17.88;9.00;;;23.80;99.90;;;;;;5053900;28;20024;-85
2022/09/08 06:24:50;;;;;;;11.75;7.30;;;24.00;99.90;;;;;;5053358;28;20024;-86
2022/09/08 06:28:00;;;;;;;12.55;7.68;;;24.50;99.90;;;;;;5053220;28;20082;-87
2022/09/08 06:30:26;;;;;;;9.50;7.18;;;24.50;99.90;;;;;;5053304;28;20032;-86
2022/09/08 06:32:54;;;;;;;25.15;8.38;;;24.70;99.90;;;;;;5053531;28;20024;-85
2022/09/08 06:35:39;;;;;;;15.05;7.93;;;24.90;99.90;;;;;;5053150;28;20028;-87
2022/09/08 06:38:14;;;;;;;14.55;7.15;;;25.10;99.90;;;;;;5053188;28;20028;-87
2022/09/08 06:40:49;;;;;;;18.10;7.03;;;25.30;99.90;;;;;;5053582;28;20020;-86
2022/09/08 06:43:42;;;;;;;21.17;7.45;;;25.40;99.90;;;;;;5052879;28;20534;-87
2022/09/08 06:46:26;;;;;;;9.60;6.47;;;25.60;99.90;;;;;;5053511;28;20032;-87
2022/09/08 06:48:53;;;;;;;8.73;6.22;;;25.70;99.90;;;;;;5053005;28;20052;-87
2022/09/08 06:52:00;;;;;;;9.43;6.82;;;25.80;99.90;;;;;;5052706;28;20032;-84
2022/09/08 06:54:49;;;;;;;14.00;7.10;;;26.00;99.90;;;;;;5032356;28;20481;-85
2022/09/08 06:57:20;;;;;;;10.55;6.05;;;26.00;99.80;;;;;;5052670;28;20037;-85
2022/09/08 07:00:00;;;;;;;14.05;7.10;;;26.50;99.50;;;;;;5053340;28;20366;-85
2022/09/08 07:02:35;;;;;;;13.27;6.82;;;26.80;98.70;;;;;;5051824;28;20039;-86
2022/09/08 07:05:07;;;;;;;16.95;6.35;;;26.70;99.00;;;;;;5052735;28;20433;-84
2022/09/08 07:08:02;;;;;;;10.10;6.30;;;27.00;98.60;;;;;;5052604;28;20064;-86
2022/09/08 07:10:53;;;;;;;9.20;6.85;;;27.30;97.90;;;;;;5055552;28;20036;-87
2022/09/08 07:13:26;;;;;;;11.63;5.95;;;27.00;97.60;;;;;;5053734;28;20093;-86
2022/09/08 07:16:15;;;;;;;14.98;6.13;;;26.60;98.00;;;;;;5072054;28;20039;-87
2022/09/08 07:19:04;;;;;;;7.70;6.28;;;26.20;98.60;;;;;;5012708;28;20748;-87
2022/09/08 07:21:49;;;;;;;10.25;6.90;;;25.70;99.20;;;;;;5029721;28;20112;-86
2022/09/08 07:24:17;;;;;;;10.68;6.30;;;25.40;99.90;;;;;;5013485;28;20018;-86
2022/09/08 07:26:52;;;;;;;8.27;5.93;;;25.90;99.60;;;;;;5032644;28;20039;-87
2022/09/08 07:29:29;;;;;;;8.83;5.80;;;26.60;98.40;;;;;;5050077;28;20041;-87
2022/09/08 07:31:57;;;;;;;10.43;6.35;;;27.10;97.80;;;;;;5032626;28;20029;-83
2022/09/08 07:34:27;;;;;;;10.98;5.90;;;27.40;97.30;;;;;;5032278;28;20056;-87
2022/09/08 07:37:18;;;;;;;10.65;6.38;;;27.50;97.00;;;;;;5032388;28;20425;-87
2022/09/08 07:40:05;;;;;;;9.02;6.45;;;27.80;96.90;;;;;;5016919;28;20033;-86
2022/09/08 07:42:31;;;;;;;14.07;6.18;;;28.20;95.80;;;;;;5032083;28;20033;-87
2022/09/08 07:45:00;;;;;;;9.75;6.22;;;28.40;95.40;;;;;;5032821;28;20028;-86
2022/09/08 07:48:03;;;;;;;9.27;5.78;;;28.50;94.90;;;;;;5032045;28;20028;-87
2022/09/08 07:50:56;;;;;;;17.55;6.80;;;28.40;95.30;;;;;;5010385;28;20053;-86
2022/09/08 07:53:58;;;;;;;10.48;6.85;;;28.50;94.50;;;;;;5031945;28;20043;-84
2022/09/08 07:56:43;;;;;;;15.63;6.22;;;28.40;94.90;;;;;;5032191;28;20059;-85
2022/09/08 07:59:18;;;;;;;7.35;6.57;;;28.90;93.90;;;;;;5032193;28;20029;-84
2022/09/08 08:01:49;;;;;;;8.82;5.97;;;28.90;93.70;;;;;;5032445;28;20055;-84
2022/09/08 08:04:37;;;;;;;11.15;5.50;;;29.30;93.40;;;;;;5031932;28;20120;-85
2022/09/08 08:07:12;;;;;;;17.35;7.30;;;29.60;92.30;;;;;;5051882;28;20124;-82
2022/09/08 08:10:01;;;;;;;23.47;6.97;;;29.30;92.30;;;;;;5052391;28;20039;-85
2022/09/08 08:12:39;;;;;;;22.80;7.68;;;28.60;92.60;;;;;;5051942;28;20381;-84
2022/09/08 08:15:13;;;;;;;12.25;7.15;;;28.30;93.50;;;;;;5052200;28;20597;-84
2022/09/08 08:17:51;;;;;;;9.20;6.65;;;28.60;93.60;;;;;;5052279;28;20028;-85
2022/09/08 08:20:29;;;;;;;12.07;6.90;;;28.70;93.50;;;;;;5051760;28;20031;-86
2022/09/08 08:23:23;;;;;;;16.50;6.63;;;28.40;93.30;;;;;;5052322;28;20108;-87
2022/09/08 08:25:57;;;;;;;14.63;7.53;;;27.80;94.70;;;;;;5051639;28;20369;-86
2022/09/08 08:28:23;;;;;;;10.93;6.82;;;27.60;95.10;;;;;;5050715;28;20028;-86
2022/09/08 08:30:48;;;;;;;14.10;6.90;;;27.50;95.40;;;;;;5051815;28;20049;-86
2022/09/08 08:33:22;;;;;;;14.48;7.00;;;27.40;95.40;;;;;;5051127;28;20170;-84
2022/09/08 08:36:03;;;;;;;16.95;7.07;;;27.40;95.50;;;;;;5038441;28;20116;-85
2022/09/08 08:38:35;;;;;;;9.88;6.35;;;27.30;95.20;;;;;;5026833;28;20105;-86
2022/09/08 08:41:06;;;;;;;14.18;7.53;;;27.20;95.90;;;;;;5038700;28;20016;-86
2022/09/08 08:43:35;;;;;;;21.52;6.55;;;27.30;95.90;;;;;;5055823;28;20036;-86
2022/09/08 08:46:27;;;;;;;11.20;6.95;;;27.70;95.80;;;;;;5055394;28;20020;-87
2022/09/08 08:49:17;;;;;;;15.45;7.68;;;28.00;95.00;;;;;;5044464;28;20296;-87
2022/09/08 08:52:23;;;;;;;16.20;6.80;;;28.40;94.40;;;;;;5035516;28;20021;-85
2022/09/08 08:54:58;;;;;;;15.17;6.87;;;28.40;94.20;;;;;;5053431;28;20521;-87
2022/09/08 08:57:51;;;;;;;34.67;7.43;;;28.10;94.30;;;;;;5034786;28;20090;-87
2022/09/08 09:00:36;;;;;;;14.80;7.00;;;28.30;94.50;;;;;;5034789;28;20063;-87
2022/09/08 09:03:35;;;;;;;15.88;7.32;;;28.40;93.80;;;;;;5035314;28;20033;-87
2022/09/08 09:06:42;;;;;;;15.02;6.50;;;28.40;94.20;;;;;;5049616;28;20483;-88
2022/09/08 09:09:25;;;;;;;9.20;6.57;;;28.10;94.30;;;;;;5054339;28;20060;-87
2022/09/08 09:11:51;;;;;;;18.77;6.70;;;28.40;93.50;;;;;;5072395;28;20090;-86
2022/09/08 09:14:20;;;;;;;17.77;7.10;;;28.50;93.90;;;;;;5037517;28;20021;-87
2022/09/08 09:17:09;;;;;;;12.88;6.93;;;28.40;93.80;;;;;;5034602;28;20116;-87
2022/09/08 09:19:37;;;;;;;11.63;6.20;;;28.20;94.10;;;;;;5034997;28;20496;-87
2022/09/08 09:22:24;;;;;;;18.75;7.75;;;28.10;94.00;;;;;;5049648;28;20079;-85
2022/09/08 09:25:08;;;;;;;;;;;27.80;94.10;;;;;;5054309;28;20071;-85
2022/09/08 09:28:29;;;;;;;8.82;5.85;;;27.70;94.60;;;;;;5051584;28;20436;-85
2022/09/08 09:31:12;;;;;;;14.90;8.07;;;27.60;94.80;;;;;;5030161;28;20082;-86
2022/09/08 09:34:11;;;;;;;13.63;7.15;;;27.50;95.20;;;;;;5054846;28;20028;-86
2022/09/08 09:36:48;;;;;;;17.40;7.22;;;27.80;95.10;;;;;;5053592;28;20025;-86
2022/09/08 09:39:24;;;;;;;14.45;6.97;;;28.10;94.60;;;;;;5053580;28;20028;-87
2022/09/08 09:42:23;;;;;;;19.58;7.18;;;28.80;94.50;;;;;;5072009;28;20035;-83
2022/09/08 09:45:13;;;;;;;22.08;6.90;;;29.60;92.50;;;;;;5071743;28;20032;-84
2022/09/08 09:47:58;;;;;;;19.83;7.03;;;30.20;91.40;;;;;;5053307;28;20086;-84
2022/09/08 09:51:04;;;;;;;19.17;6.75;;;30.70;90.80;;;;;;5053425;28;20067;-84
2022/09/08 09:53:44;;;;;;;16.13;6.07;;;31.10;89.60;;;;;;5053824;28;20028;-85
2022/09/08 09:56:34;;;;;;;10.93;6.15;;;31.20;88.00;;;;;;5053275;28;20079;-85
2022/09/08 09:59:18;;;;;;;17.73;6.35;;;30.80;88.70;;;;;;5054060;28;20393;-85
2022/09/08 10:01:50;;;;;;;17.60;5.90;;;30.70;89.20;;;;;;5062651;28;20033;-82
2022/09/08 10:04:22;;;;;;;9.02;5.47;;;30.70;88.90;;;;;;5061482;28;20013;-86
2022/09/08 10:07:12;;;;;;;11.10;5.35;;;30.90;87.80;;;;;;5057992;28;20025;-83
2022/09/08 10:10:06;;;;;;;13.38;5.47;;;31.10;86.30;;;;;;5053316;28;20037;-84
2022/09/08 10:13:11;;;;;;;19.27;5.78;;;30.80;86.50;;;;;;5053673;28;20066;-83
2022/09/08 10:15:55;;;;;;;11.23;5.40;;;30.50;89.10;;;;;;5053545;28;20024;-84
2022/09/08 10:18:46;;;;;;;10.70;6.15;;;30.70;87.20;;;;;;5035497;28;20504;-84
2022/09/08 10:21:29;;;;;;;18.42;5.70;;;30.50;86.20;;;;;;5033226;28;20362;-83
2022/09/08 10:24:14;;;;;;;10.25;5.78;;;30.40;86.20;;;;;;5051749;28;20547;-85
2022/09/08 10:27:01;;;;;;;18.83;5.55;;;30.20;86.10;;;;;;5033708;28;20029;-85
2022/09/08 10:29:42;;;;;;;9.23;5.30;;;29.80;86.90;;;;;;5033058;28;20053;-84
2022/09/08 10:32:16;;;;;;;13.32;5.65;;;29.40;88.50;;;;;;5034131;28;20025;-84
2022/09/08 10:35:02;;;;;;;8.40;6.85;;;29.30;89.50;;;;;;5033209;28;20474;-85
2022/09/08 10:37:40;;;;;;;17.23;6.20;;;29.30;89.60;;;;;;5033225;28;20052;-85
2022/09/08 10:40:36;;;;;;;8.00;5.95;;;29.20;90.00;;;;;;5033133;28;20379;-84
2022/09/08 10:43:35;;;;;;;11.32;5.97;;;29.00;89.60;;;;;;5033746;28;20029;-85
2022/09/08 10:46:38;;;;;;;12.05;6.13;;;28.90;90.20;;;;;;5032948;28;20039;-85
2022/09/08 10:49:31;;;;;;;11.10;5.93;;;28.90;91.00;;;;;;5033118;28;20037;-85
2022/09/08 10:52:32;;;;;;;9.73;5.80;;;29.00;90.90;;;;;;5033088;28;20057;-85
2022/09/08 10:55:27;;;;;;;12.27;5.93;;;29.00;90.20;;;;;;5013875;28;20029;-85
2022/09/08 10:58:15;;;;;;;13.52;5.97;;;29.00;90.50;;;;;;5013669;28;20029;-86
2022/09/08 11:01:06;;;;;;;8.10;5.70;;;29.10;89.60;;;;;;5012841;28;20036;-83
2022/09/08 11:04:08;;;;;;;7.20;5.93;;;29.10;90.20;;;;;;5012998;28;20448;-86
2022/09/08 11:06:36;;;;;;;12.48;6.80;;;28.90;90.40;;;;;;5029896;28;20083;-85
2022/09/08 11:09:40;;;;;;;8.85;6.15;;;29.00;90.30;;;;;;5019682;28;20079;-85
2022/09/08 11:12:19;;;;;;;11.50;7.43;;;28.80;90.00;;;;;;5051002;28;20029;-85
2022/09/08 11:15:14;;;;;;;10.30;5.55;;;28.70;90.40;;;;;;5033412;28;20021;-86
2022/09/08 11:17:46;;;;;;;11.70;6.32;;;28.90;91.00;;;;;;5032425;28;20401;-85
2022/09/08 11:20:57;;;;;;;8.10;6.60;;;29.30;89.50;;;;;;5032856;28;20513;-86
2022/09/08 11:23:54;;;;;;;9.27;6.13;;;29.10;90.00;;;;;;4973208;28;20053;-85
2022/09/08 11:26:52;;;;;;;11.48;6.35;;;29.00;90.00;;;;;;4973063;28;20114;-85
2022/09/08 11:29:18;;;;;;;14.00;6.45;;;28.90;89.60;;;;;;4992198;28;20068;-86
2022/09/08 11:32:07;;;;;;;10.40;5.90;;;28.70;90.10;;;;;;5050705;28;20033;-85
2022/09/08 11:34:58;;;;;;;17.02;5.97;;;28.70;90.40;;;;;;5032169;28;20024;-86
2022/09/08 11:37:26;;;;;;;8.65;6.38;;;28.70;90.30;;;;;;5032126;28;20036;-86
2022/09/08 11:40:14;;;;;;;12.90;6.35;;;28.70;90.40;;;;;;5032798;28;20044;-85
2022/09/08 11:42:46;;;;;;;12.25;6.55;;;28.80;90.50;;;;;;5032825;28;20485;-85
2022/09/08 11:45:33;;;;;;;10.10;6.20;;;28.70;90.40;;;;;;5050390;28;20025;-85
2022/09/08 11:48:19;;;;;;;10.57;6.03;;;28.80;90.40;;;;;;5049787;28;20033;-86
2022/09/08 11:51:20;;;;;;;7.77;6.00;;;28.90;90.10;;;;;;5029409;28;20045;-85
2022/09/08 11:54:31;;;;;;;9.63;5.85;;;29.00;90.40;;;;;;5029536;28;20066;-86
2022/09/08 11:57:45;;;;;;;20.98;6.60;;;29.20;89.20;;;;;;5013259;28;20033;-86
2022/09/08 12:00:11;;;;;;;11.98;6.57;;;29.20;89.00;;;;;;4994212;28;20031;-86
2022/09/08 12:03:06;;;;;;;16.88;6.47;;;29.30;88.70;;;;;;5028748;28;20052;-85
2022/09/08 12:06:16;;;;;;;10.30;5.97;;;29.40;87.60;;;;;;5029014;28;20811;-85
2022/09/08 12:09:13;;;;;;;8.25;5.80;;;29.40;88.40;;;;;;5029157;28;20126;-85
2022/09/08 12:12:00;;;;;;;6.55;5.07;;;29.80;87.10;;;;;;5028909;28;20040;-86
2022/09/08 12:14:54;;;;;;;12.02;6.13;;;29.90;86.10;;;;;;5029126;28;20037;-86
2022/09/08 12:17:50;;;;;;;14.90;5.97;;;30.10;85.60;;;;;;5031168;28;20168;-85
2022/09/08 12:20:43;;;;;;;11.97;5.60;;;30.30;85.40;;;;;;5032751;28;20037;-86
2022/09/08 12:23:33;;;;;;;20.42;6.57;;;30.30;84.70;;;;;;5032725;28;20033;-85
2022/09/08 12:26:11;;;;;;;7.65;5.72;;;30.20;84.20;;;;;;5030450;28;20147;-86
2022/09/08 12:28:54;;;;;;;13.32;6.05;;;29.90;84.30;;;;;;5031403;28;20032;-85
2022/09/08 12:31:45;;;;;;;8.75;6.07;;;29.70;85.00;;;;;;5033827;28;20042;-86
2022/09/08 12:34:26;;;;;;;15.35;6.68;;;29.60;85.80;;;;;;5032527;28;20024;-86
2022/09/08 12:37:02;;;;;;;6.93;5.72;;;29.40;86.60;;;;;;5032748;28;20083;-86
2022/09/08 12:40:01;;;;;;;15.82;6.15;;;29.30;86.90;;;;;;5032285;28;20030;-85
2022/09/08 12:42:52;;;;;;;14.93;6.35;;;29.40;87.00;;;;;;5032514;28;20076;-86
2022/09/08 12:45:42;;;;;;;10.18;6.80;;;29.40;86.30;;;;;;5032419;28;20051;-85
2022/09/08 12:48:30;;;;;;;10.15;6.60;;;29.50;85.80;;;;;;5032733;28;20051;-86
2022/09/08 12:51:20;;;;;;;9.48;6.28;;;29.40;86.50;;;;;;5031853;28;20084;-85
2022/09/08 12:54:04;;;;;;;11.20;6.55;;;29.60;85.90;;;;;;5033296;28;20033;-86
2022/09/08 12:57:28;;;;;;;9.77;5.32;;;29.80;86.10;;;;;;5031659;28;20103;-85
2022/09/08 13:00:13;;;;;;;8.30;5.30;;;30.00;83.60;;;;;;4989087;28;20525;-85
2022/09/08 13:03:00;;;;;;;10.13;5.53;;;30.20;84.10;;;;;;5032895;28;20021;-86
2022/09/08 13:06:04;;;;;;;11.48;5.68;;;30.20;84.00;;;;;;5031875;28;20494;-85
2022/09/08 13:08:56;;;;;;;12.70;4.90;;;30.30;83.40;;;;;;5031447;28;20033;-86
2022/09/08 13:11:50;;;;;;;9.20;3.42;;;30.30;83.20;;;;;;5032536;28;20069;-85
2022/09/08 13:14:37;;;;;;;10.32;2.97;;;30.30;81.90;;;;;;5047711;28;20021;-85
2022/09/08 13:17:18;;;;;;;4.97;2.85;;;30.40;80.70;;;;;;5050888;28;20660;-85
2022/09/08 13:20:00;;;;;;;15.00;3.80;;;30.50;81.20;;;;;;5051689;28;20512;-85
2022/09/08 13:22:54;;;;;;;8.38;3.03;;;30.70;80.70;;;;;;5051314;28;20040;-85
2022/09/08 13:25:44;;;;;;;12.70;2.50;;;30.80;79.70;;;;;;5051866;28;20070;-86
2022/09/08 13:28:26;;;;;;;5.35;2.22;;;30.70;79.00;;;;;;5050395;28;20056;-84
2022/09/08 13:31:18;;;;;;;13.02;2.55;;;30.80;77.30;;;;;;5051892;28;20067;-86
2022/09/08 13:34:05;;;;;;;8.50;1.83;;;30.90;77.20;;;;;;5056831;28;20440;-85